首页
METAR-TAF:

METAR-TAF

机场 :

威廉斯波特, 宾夕法尼亚州, 美国

纬度: 41-14-30N, 经度: 076-55-15W, 海拔: 161米

当前天气观测

该预报发布于1小时和3分钟前的19:54 UTC
风速5节,风向多变
温度 27°C
湿度 32%
气压 1018 hPa
能見度: 16.1公里
多云层高于7500英尺

METAR: KIPT 151954Z VRB05KT 10SM BKN075 27/09 A3007 RMK AO2 SLP179 T02720089

时间: 16:57 (20:57 UTC)

预报

该预报发布于3小时和29分钟前的17:28 UTC
预报有效从15日的 18点(UTC)到 16日的 18点(UTC)
风速5节,风向多变
能見度: 10公里
散云层高于8000英尺
从 16日的 0000点(UTC)
风速节,风向
能見度: 10公里
散云层高于11000英尺
多云层高于25000英尺
从 16日的 0900点(UTC)
风速节,风向
能見度: 10公里
散云层高于400英尺
附近有雾
从 16日的 1200点(UTC)
风速节,风向
能見度: 10公里
散云层高于25000英尺

TAF: KIPT 151728Z 1518/1618 VRB05KT P6SM SCT080 FM160000 00000KT P6SM SCT110 BKN250 FM160900 00000KT P6SM VCFG SCT004 FM161200 00000KT P6SM SCT250

超过4000个机场的气象观测和天气预报(METAR&TAF报告)。

可查询的气象台以黄色和红色小点在地图上表示。

将鼠标移到小点上方,可查看气象台名称。

然后点击查看天气观测和预报。

如需切换地图:点击带黑十字的绿色按钮放大地图;点击带横线的绿色按钮缩小地图;或者点击绿色箭头查看邻近地区的地图。


METAR-TAF: